Time;durP1;ratioP1;P1;durP2;ratioP2;P2;SDS_P1;SDS_P2;PMS_P1;PMS_P2;Temp;Humidity;BMP_temperature;BMP_pressure;BME280_temperature;BME280_humidity;BME280_pressure;Samples;Min_cycle;Max_cycle;Signal;HPM_P1;HPM_P2
2024/01/10 00:01:47;;;;;;;23.73;9.90;;;-1.20;84.00;;;;;;5067418;28;21078;-66
2024/01/10 00:04:16;;;;;;;22.83;9.10;;;-1.10;85.10;;;;;;5035802;28;20474;-65
2024/01/10 00:06:43;;;;;;;20.80;10.00;;;-1.10;85.30;;;;;;5060521;28;20466;-66
2024/01/10 00:09:09;;;;;;;36.37;9.37;;;-1.10;83.80;;;;;;5062320;28;20482;-66
2024/01/10 00:11:36;;;;;;;13.30;7.73;;;-1.20;83.30;;;;;;5067480;28;20543;-66
2024/01/10 00:14:05;;;;;;;15.87;8.30;;;-1.30;82.60;;;;;;5069847;28;20508;-68
2024/01/10 00:16:33;;;;;;;40.60;8.77;;;-1.30;83.00;;;;;;5055894;28;21139;-66
2024/01/10 00:19:00;;;;;;;19.10;8.37;;;-1.30;83.60;;;;;;5075934;28;20549;-67
2024/01/10 00:21:27;;;;;;;15.37;7.90;;;-1.30;83.40;;;;;;5071667;28;20871;-66
2024/01/10 00:23:54;;;;;;;23.63;8.30;;;-1.20;84.20;;;;;;5074197;28;21012;-67
2024/01/10 00:26:21;;;;;;;11.60;8.03;;;-1.20;83.70;;;;;;5078042;28;20471;-66
2024/01/10 00:28:48;;;;;;;13.40;7.70;;;-1.20;83.20;;;;;;5067186;28;20496;-66
2024/01/10 00:31:15;;;;;;;22.63;7.40;;;-1.10;83.50;;;;;;5068438;28;20544;-66
2024/01/10 00:33:43;;;;;;;18.00;8.27;;;-1.20;82.80;;;;;;5074358;28;20477;-64
2024/01/10 00:36:10;;;;;;;16.20;8.73;;;-1.10;83.00;;;;;;5063403;28;20509;-64
2024/01/10 00:38:38;;;;;;;14.70;7.80;;;-1.20;82.20;;;;;;5082265;28;20497;-63
2024/01/10 00:41:05;;;;;;;15.90;8.93;;;-1.20;82.50;;;;;;5082180;28;20490;-64
2024/01/10 00:43:31;;;;;;;45.50;11.43;;;-1.20;83.00;;;;;;5070471;28;20532;-64
2024/01/10 00:45:58;;;;;;;12.17;6.40;;;-1.20;82.50;;;;;;5075306;28;21000;-64
2024/01/10 00:48:25;;;;;;;29.87;11.27;;;-1.20;82.20;;;;;;5072222;28;20534;-64
2024/01/10 00:50:53;;;;;;;19.30;8.27;;;-1.20;82.60;;;;;;5064673;28;20478;-64
2024/01/10 00:53:20;;;;;;;13.83;8.00;;;-1.20;82.30;;;;;;5045048;28;20487;-64
2024/01/10 00:55:47;;;;;;;20.73;8.40;;;-1.20;83.30;;;;;;5066281;28;20466;-64
2024/01/10 00:58:14;;;;;;;20.23;7.67;;;-1.20;82.70;;;;;;5069186;28;20489;-64
2024/01/10 01:00:41;;;;;;;15.47;8.37;;;-1.20;82.20;;;;;;5076322;28;20481;-64
2024/01/10 01:03:08;;;;;;;21.57;8.60;;;-1.20;83.10;;;;;;5076059;28;20473;-64
2024/01/10 01:05:35;;;;;;;43.57;9.40;;;-1.20;83.20;;;;;;5061414;28;20471;-64
2024/01/10 01:08:03;;;;;;;21.27;10.90;;;-1.20;82.80;;;;;;5079049;28;20485;-64
2024/01/10 01:10:30;;;;;;;21.73;8.70;;;-1.20;82.70;;;;;;5074440;28;20494;-65
2024/01/10 01:12:57;;;;;;;17.30;8.37;;;-1.10;83.00;;;;;;5068096;28;20479;-64
2024/01/10 01:15:24;;;;;;;16.17;8.83;;;-1.10;82.80;;;;;;5076171;28;20491;-66
2024/01/10 01:17:52;;;;;;;9.20;5.80;;;;;;;;;;5069662;28;20478;-66
2024/01/10 01:20:19;;;;;;;24.57;9.80;;;-1.10;82.70;;;;;;5062006;28;20757;-66
2024/01/10 01:22:45;;;;;;;24.50;7.67;;;-1.10;82.00;;;;;;5079727;28;20478;-66
2024/01/10 01:25:14;;;;;;;24.80;7.67;;;-1.10;82.40;;;;;;5059144;28;21160;-66
2024/01/10 01:27:40;;;;;;;20.30;7.90;;;-1.10;82.60;;;;;;5074322;28;20478;-66
2024/01/10 01:30:08;;;;;;;17.73;7.00;;;-1.10;82.00;;;;;;5046920;28;20514;-66
2024/01/10 01:32:35;;;;;;;17.67;6.63;;;-1.10;81.80;;;;;;5071504;28;20490;-66
2024/01/10 01:35:02;;;;;;;19.70;6.30;;;-1.10;82.50;;;;;;5070651;28;20483;-66
2024/01/10 01:37:29;;;;;;;17.93;8.00;;;-1.10;81.70;;;;;;5067214;28;20486;-65
2024/01/10 01:39:56;;;;;;;16.10;8.90;;;-1.10;82.50;;;;;;5076031;28;20470;-66
2024/01/10 01:42:24;;;;;;;13.40;8.83;;;-1.10;82.40;;;;;;5074297;28;20474;-66
2024/01/10 01:44:51;;;;;;;17.00;8.47;;;-1.10;82.00;;;;;;5067128;28;20889;-63
2024/01/10 01:47:18;;;;;;;14.70;7.20;;;-1.00;82.10;;;;;;5072313;28;20475;-64
2024/01/10 01:49:45;;;;;;;14.90;8.00;;;-1.10;81.40;;;;;;5037903;28;20479;-64
2024/01/10 01:52:13;;;;;;;15.93;8.80;;;-1.10;81.50;;;;;;5056135;28;20581;-64
2024/01/10 01:54:41;;;;;;;13.00;8.87;;;-1.10;81.90;;;;;;5073327;28;20783;-63
2024/01/10 01:57:07;;;;;;;40.53;9.70;;;-1.00;82.10;;;;;;5072258;28;20474;-64
2024/01/10 01:59:36;;;;;;;21.53;7.90;;;-1.00;81.60;;;;;;5070284;28;20490;-64
2024/01/10 02:02:05;;;;;;;18.20;7.90;;;-1.00;81.70;;;;;;5051298;28;20559;-63
2024/01/10 02:04:32;;;;;;;11.53;6.87;;;-1.00;81.60;;;;;;5052010;28;20479;-64
2024/01/10 02:06:59;;;;;;;18.87;8.47;;;-1.00;81.20;;;;;;5061030;28;20524;-63
2024/01/10 02:09:26;;;;;;;26.20;9.33;;;-0.90;82.50;;;;;;5073474;28;20466;-64
2024/01/10 02:11:54;;;;;;;19.43;8.77;;;-0.90;82.10;;;;;;5063877;28;20535;-64
2024/01/10 02:14:21;;;;;;;14.77;7.90;;;-0.90;82.20;;;;;;5062937;28;20478;-64
2024/01/10 02:16:50;;;;;;;18.33;9.00;;;-0.80;82.70;;;;;;5076192;28;20549;-64
2024/01/10 02:19:21;;;;;;;31.57;10.50;;;-0.80;82.60;;;;;;5068773;28;20482;-64
2024/01/10 02:21:48;;;;;;;12.17;7.60;;;-0.80;81.80;;;;;;5064439;28;20499;-64
2024/01/10 02:24:15;;;;;;;14.53;8.50;;;-0.80;81.40;;;;;;5066848;28;25532;-64
2024/01/10 02:26:44;;;;;;;68.23;9.37;;;-0.80;81.50;;;;;;5070312;28;20486;-63
2024/01/10 02:29:11;;;;;;;15.00;5.97;;;-0.80;81.90;;;;;;5076598;28;20821;-64
2024/01/10 02:31:38;;;;;;;21.40;8.47;;;-0.80;82.00;;;;;;5065458;28;20486;-64
2024/01/10 02:34:04;;;;;;;20.80;6.40;;;-0.80;81.30;;;;;;5075074;28;20474;-64
2024/01/10 02:36:31;;;;;;;15.40;8.53;;;-0.80;81.80;;;;;;5062021;28;20483;-64
2024/01/10 02:38:58;;;;;;;15.53;8.57;;;-0.80;82.00;;;;;;5071601;28;20483;-64
2024/01/10 02:41:27;;;;;;;9.80;7.53;;;-0.70;82.50;;;;;;5062355;28;20483;-64
2024/01/10 02:43:58;;;;;;;20.70;9.70;;;-0.70;82.30;;;;;;5020723;28;20460;-64
2024/01/10 02:46:27;;;;;;;19.97;9.10;;;-0.60;82.90;;;;;;5035273;28;20480;-64
2024/01/10 02:48:54;;;;;;;21.43;9.50;;;-0.50;83.40;;;;;;5069271;28;20466;-64
2024/01/10 02:51:21;;;;;;;16.40;7.77;;;-0.50;82.60;;;;;;5040475;28;20813;-64
2024/01/10 02:53:48;;;;;;;18.70;8.13;;;-0.60;81.70;;;;;;5067278;28;20497;-64
2024/01/10 02:56:15;;;;;;;13.57;7.87;;;-0.60;81.60;;;;;;5070148;28;20482;-64
2024/01/10 02:58:41;;;;;;;19.30;9.63;;;-0.60;81.60;;;;;;5070383;28;20538;-64
2024/01/10 03:01:10;;;;;;;36.50;9.10;;;-0.60;81.60;;;;;;5061277;28;20536;-64
2024/01/10 03:03:37;;;;;;;20.73;8.50;;;-0.50;82.80;;;;;;5070946;28;20531;-64
2024/01/10 03:06:04;;;;;;;17.73;8.63;;;-0.50;83.40;;;;;;5066073;28;20483;-64
2024/01/10 03:08:31;;;;;;;21.93;8.87;;;-0.40;83.30;;;;;;5067061;28;20490;-64
2024/01/10 03:10:58;;;;;;;14.97;9.00;;;-0.40;83.10;;;;;;5056512;28;20681;-64
2024/01/10 03:13:25;;;;;;;15.43;8.40;;;-0.30;83.40;;;;;;5065811;28;20490;-64
2024/01/10 03:15:51;;;;;;;23.10;9.17;;;-0.30;83.80;;;;;;5067490;28;20490;-64
2024/01/10 03:18:20;;;;;;;22.70;8.90;;;-0.30;83.80;;;;;;5064602;28;20483;-64
2024/01/10 03:20:46;;;;;;;17.47;8.07;;;-0.30;83.70;;;;;;5071394;28;20536;-64
2024/01/10 03:23:13;;;;;;;15.73;8.43;;;-0.20;83.60;;;;;;5075788;28;20478;-64
2024/01/10 03:25:40;;;;;;;20.53;9.60;;;-0.20;83.80;;;;;;5063705;28;21202;-64
2024/01/10 03:28:07;;;;;;;13.67;8.77;;;-0.20;83.80;;;;;;5068022;28;20938;-63
2024/01/10 03:30:34;;;;;;;20.60;9.97;;;-0.20;83.80;;;;;;5068424;28;20467;-64
2024/01/10 03:33:01;;;;;;;18.57;9.10;;;-0.20;83.90;;;;;;5067628;28;20833;-64
2024/01/10 03:35:29;;;;;;;36.33;10.30;;;-0.20;83.60;;;;;;5061452;28;20483;-64
2024/01/10 03:37:56;;;;;;;22.00;9.33;;;-0.20;83.30;;;;;;5039075;28;20468;-64
2024/01/10 03:40:23;;;;;;;13.77;7.83;;;-0.20;83.40;;;;;;5067167;28;20905;-64
2024/01/10 03:42:50;;;;;;;24.57;9.80;;;-0.20;83.60;;;;;;5075867;28;20825;-63
2024/01/10 03:45:20;;;;;;;17.53;8.17;;;-0.20;83.60;;;;;;5047719;28;20618;-64
2024/01/10 03:47:50;;;;;;;21.97;10.90;;;-0.30;83.60;;;;;;5073601;28;21234;-64
2024/01/10 03:50:18;;;;;;;39.93;9.50;;;-0.30;82.80;;;;;;5065930;28;20914;-64
2024/01/10 03:52:47;;;;;;;19.57;8.93;;;-0.30;82.40;;;;;;5067911;28;20582;-64
2024/01/10 03:55:15;;;;;;;15.80;8.50;;;-0.40;81.60;;;;;;5074924;28;20510;-64
2024/01/10 03:57:42;;;;;;;23.43;8.50;;;-0.40;82.50;;;;;;5070832;28;20805;-64
2024/01/10 04:00:10;;;;;;;14.70;9.13;;;-0.40;83.00;;;;;;5081919;28;20892;-65
2024/01/10 04:02:38;;;;;;;18.67;9.83;;;-0.40;82.70;;;;;;5073615;28;20478;-64
2024/01/10 04:05:08;;;;;;;18.63;10.07;;;-0.30;82.80;;;;;;5068615;28;20527;-64
2024/01/10 04:07:34;;;;;;;20.63;10.10;;;-0.40;82.60;;;;;;5065860;28;21374;-64
2024/01/10 04:10:03;;;;;;;38.93;10.47;;;;;;;;;;5061457;28;20880;-64
2024/01/10 04:12:30;;;;;;;21.37;8.97;;;-0.30;83.00;;;;;;5067078;28;20478;-64
2024/01/10 04:14:58;;;;;;;16.60;9.33;;;-0.30;83.30;;;;;;5071491;28;20552;-64
2024/01/10 04:17:25;;;;;;;24.70;10.10;;;-0.40;81.90;;;;;;5074340;28;20466;-64
2024/01/10 04:19:52;;;;;;;14.77;9.23;;;-0.40;82.80;;;;;;5075800;28;20950;-64
2024/01/10 04:22:19;;;;;;;18.13;9.40;;;-0.40;82.90;;;;;;5073830;28;20532;-64
2024/01/10 04:24:46;;;;;;;18.60;9.67;;;-0.40;82.50;;;;;;5073648;28;20944;-64
2024/01/10 04:27:14;;;;;;;21.03;10.30;;;-0.40;82.80;;;;;;5069463;28;21072;-64
2024/01/10 04:29:41;;;;;;;16.73;10.03;;;-0.40;83.20;;;;;;5076856;28;20540;-64
2024/01/10 04:32:08;;;;;;;20.50;9.97;;;-0.30;83.00;;;;;;5065713;28;20471;-64
2024/01/10 04:34:35;;;;;;;27.57;9.40;;;-0.30;83.70;;;;;;5072116;28;20515;-64
2024/01/10 04:37:02;;;;;;;19.47;9.03;;;-0.30;83.60;;;;;;5064485;28;20524;-65
2024/01/10 04:39:29;;;;;;;31.87;10.30;;;-0.30;83.00;;;;;;5073926;28;20482;-64
2024/01/10 04:41:56;;;;;;;25.53;11.00;;;-0.30;83.40;;;;;;5063208;28;20555;-64
2024/01/10 04:44:25;;;;;;;38.70;10.20;;;-0.30;82.20;;;;;;5066399;28;20827;-64
2024/01/10 04:46:52;;;;;;;20.90;11.20;;;-0.30;82.90;;;;;;5053714;28;20486;-67
2024/01/10 04:49:19;;;;;;;26.77;10.20;;;-0.30;82.90;;;;;;5073121;28;20524;-66
2024/01/10 04:51:46;;;;;;;31.90;11.00;;;-0.40;81.90;;;;;;5069037;28;20486;-66
2024/01/10 04:54:13;;;;;;;22.00;9.90;;;-0.30;83.30;;;;;;5068032;28;20946;-66
2024/01/10 04:56:39;;;;;;;20.43;8.77;;;-0.40;82.70;;;;;;5066863;28;21063;-66
2024/01/10 04:59:07;;;;;;;17.30;9.60;;;-0.40;82.70;;;;;;5064124;28;20481;-66
2024/01/10 05:01:36;;;;;;;17.07;9.33;;;-0.40;83.10;;;;;;5072573;28;20508;-66
2024/01/10 05:04:03;;;;;;;13.13;8.73;;;-0.30;83.70;;;;;;5012257;28;20479;-66
2024/01/10 05:06:30;;;;;;;26.20;9.97;;;-0.30;83.20;;;;;;5046576;28;20479;-66
2024/01/10 05:08:58;;;;;;;15.23;8.93;;;-0.30;83.40;;;;;;5043093;28;20475;-66
2024/01/10 05:11:25;;;;;;;21.57;10.10;;;-0.30;82.90;;;;;;5052739;28;20480;-66
2024/01/10 05:13:52;;;;;;;22.03;9.93;;;-0.40;81.50;;;;;;5050960;28;20900;-66
2024/01/10 05:16:19;;;;;;;20.53;9.03;;;-0.40;81.60;;;;;;5046352;28;20542;-64
2024/01/10 05:18:48;;;;;;;39.73;10.80;;;-0.50;81.90;;;;;;5058938;28;20518;-64
2024/01/10 05:21:15;;;;;;;22.50;10.30;;;-0.50;82.30;;;;;;5052161;28;20487;-64
2024/01/10 05:23:42;;;;;;;25.27;10.20;;;-0.50;83.00;;;;;;5045197;28;20483;-64
2024/01/10 05:26:08;;;;;;;26.70;9.97;;;-0.50;83.30;;;;;;5051748;28;20904;-64
2024/01/10 05:28:35;;;;;;;18.53;9.40;;;-0.50;83.00;;;;;;5053836;28;20888;-64
2024/01/10 05:31:03;;;;;;;18.50;9.67;;;-0.50;82.80;;;;;;5050653;28;20475;-64
2024/01/10 05:33:30;;;;;;;39.63;9.67;;;-0.60;82.40;;;;;;5044017;28;20471;-64
2024/01/10 05:35:59;;;;;;;29.17;10.57;;;-0.50;83.30;;;;;;5061018;28;20736;-64
2024/01/10 05:38:25;;;;;;;16.10;9.57;;;-0.50;82.90;;;;;;5059485;28;20478;-65
2024/01/10 05:40:52;;;;;;;17.67;10.30;;;-0.60;82.70;;;;;;5053526;28;20478;-64
2024/01/10 05:43:19;;;;;;;23.90;10.30;;;-0.70;82.80;;;;;;5044233;28;20757;-64
2024/01/10 05:45:46;;;;;;;22.73;9.90;;;-0.70;82.70;;;;;;5042196;28;20476;-65
2024/01/10 05:48:13;;;;;;;14.13;8.83;;;-0.70;83.00;;;;;;5043534;28;20475;-64
2024/01/10 05:50:40;;;;;;;18.47;9.63;;;-0.70;83.20;;;;;;5051316;28;20524;-64
2024/01/10 05:53:10;;;;;;;17.87;8.23;;;-0.70;83.00;;;;;;5055091;28;20487;-64
2024/01/10 05:55:38;;;;;;;21.37;10.60;;;-0.70;82.80;;;;;;5054024;28;20557;-66
2024/01/10 05:58:05;;;;;;;26.53;9.70;;;-0.70;82.60;;;;;;5047368;28;20476;-66
2024/01/10 06:00:32;;;;;;;27.40;11.17;;;-0.60;83.40;;;;;;5052106;28;20483;-66
2024/01/10 06:02:59;;;;;;;26.90;11.10;;;-0.70;82.80;;;;;;5060006;28;20509;-66
2024/01/10 06:05:26;;;;;;;20.67;11.03;;;-0.60;82.90;;;;;;5055676;28;20890;-66
2024/01/10 06:07:53;;;;;;;17.40;8.90;;;-0.70;82.70;;;;;;5057619;28;20475;-67
2024/01/10 06:10:21;;;;;;;27.40;10.13;;;-0.70;83.10;;;;;;5051569;28;20997;-67
2024/01/10 06:12:48;;;;;;;13.30;8.10;;;-0.60;83.00;;;;;;5051896;28;20528;-66
2024/01/10 06:15:15;;;;;;;29.30;10.00;;;-0.70;82.50;;;;;;5049141;28;20850;-66
2024/01/10 06:17:43;;;;;;;26.17;10.50;;;-0.70;82.80;;;;;;5042762;28;20484;-66
2024/01/10 06:20:11;;;;;;;19.00;9.73;;;-0.70;81.70;;;;;;5040159;28;20515;-67
2024/01/10 06:22:37;;;;;;;30.47;11.70;;;-0.70;82.20;;;;;;5033122;28;20557;-66
2024/01/10 06:25:05;;;;;;;19.33;9.90;;;-0.70;82.60;;;;;;5052111;28;20822;-67
2024/01/10 06:27:33;;;;;;;18.97;10.90;;;-0.80;82.40;;;;;;5041734;28;22383;-64
2024/01/10 06:30:00;;;;;;;32.57;12.43;;;-0.70;83.00;;;;;;5043238;28;20902;-65
2024/01/10 06:32:27;;;;;;;45.60;11.20;;;-0.60;83.00;;;;;;5058185;28;20487;-65
2024/01/10 06:34:54;;;;;;;29.23;10.80;;;-0.60;83.00;;;;;;5044828;28;20536;-64
2024/01/10 06:37:21;;;;;;;18.90;10.23;;;-0.60;82.50;;;;;;5035753;28;20927;-64
2024/01/10 06:39:48;;;;;;;23.60;11.47;;;-0.60;82.60;;;;;;5039737;28;20484;-65
2024/01/10 06:42:14;;;;;;;19.90;11.60;;;-0.50;82.50;;;;;;5039108;28;20504;-64
2024/01/10 06:44:43;;;;;;;24.10;8.40;;;-0.60;82.30;;;;;;5038614;28;20482;-65
2024/01/10 06:47:09;;;;;;;24.00;11.63;;;-0.60;82.30;;;;;;5044538;28;20525;-64
2024/01/10 06:49:36;;;;;;;18.13;10.50;;;-0.60;82.30;;;;;;5044867;28;21169;-64
2024/01/10 06:52:06;;;;;;;27.97;12.50;;;-0.70;82.30;;;;;;5042769;28;20476;-64
2024/01/10 06:54:33;;;;;;;25.00;10.73;;;-0.60;83.00;;;;;;5042309;28;20478;-64
2024/01/10 06:57:00;;;;;;;21.80;11.10;;;-0.60;82.80;;;;;;5041805;28;20912;-64
2024/01/10 06:59:27;;;;;;;20.80;10.97;;;-0.70;82.60;;;;;;5054539;28;20528;-64
2024/01/10 07:01:57;;;;;;;29.33;10.53;;;-0.80;82.20;;;;;;5051143;28;20475;-64
2024/01/10 07:04:24;;;;;;;18.80;9.43;;;-0.70;82.90;;;;;;5045076;28;20479;-64
2024/01/10 07:06:51;;;;;;;34.93;12.13;;;-0.80;82.50;;;;;;5045252;28;20529;-65
2024/01/10 07:09:19;;;;;;;32.67;11.93;;;-0.80;82.70;;;;;;5046135;28;20485;-64
2024/01/10 07:11:47;;;;;;;20.97;12.30;;;-0.80;82.60;;;;;;5053466;28;20526;-64
2024/01/10 07:14:14;;;;;;;23.13;10.03;;;-0.80;82.40;;;;;;5043472;28;20475;-64
2024/01/10 07:16:45;;;;;;;27.30;11.10;;;-0.90;82.50;;;;;;5068193;28;20856;-64
2024/01/10 07:19:13;;;;;;;35.03;12.47;;;-0.90;82.70;;;;;;5023174;28;20463;-64
2024/01/10 07:21:41;;;;;;;19.00;10.47;;;-0.90;83.00;;;;;;5042993;28;20723;-64
2024/01/10 07:24:09;;;;;;;25.43;11.20;;;-0.90;82.90;;;;;;5053053;28;20835;-63
2024/01/10 07:26:37;;;;;;;23.97;11.50;;;-0.90;83.00;;;;;;5044909;28;20503;-63
2024/01/10 07:29:08;;;;;;;23.60;11.23;;;-0.90;83.00;;;;;;5049944;28;20494;-63
2024/01/10 07:31:35;;;;;;;22.50;11.53;;;-0.80;83.60;;;;;;5035961;28;20477;-65
2024/01/10 07:34:01;;;;;;;20.10;11.40;;;-0.70;84.00;;;;;;5038450;28;20483;-64
2024/01/10 07:36:33;;;;;;;44.63;11.73;;;-0.70;83.40;;;;;;5052723;28;20566;-66
2024/01/10 07:39:00;;;;;;;28.83;12.97;;;-0.60;83.80;;;;;;5048338;28;20480;-67
2024/01/10 07:41:27;;;;;;;26.37;12.37;;;-0.60;84.00;;;;;;5046100;28;20647;-66
2024/01/10 07:43:54;;;;;;;41.07;14.20;;;-0.60;83.50;;;;;;5044632;28;20475;-67
2024/01/10 07:46:22;;;;;;;24.00;12.17;;;-0.60;83.40;;;;;;5014185;28;20499;-66
2024/01/10 07:48:49;;;;;;;17.80;11.00;;;-0.50;83.90;;;;;;5055189;28;20503;-66
2024/01/10 07:51:16;;;;;;;25.10;12.03;;;-0.40;83.80;;;;;;5048834;28;20474;-66
2024/01/10 07:53:44;;;;;;;28.43;12.33;;;-0.30;83.90;;;;;;5054369;28;20532;-66
2024/01/10 07:56:12;;;;;;;21.00;11.63;;;-0.30;84.40;;;;;;5040345;28;20570;-67
2024/01/10 07:58:39;;;;;;;23.90;9.57;;;-0.20;83.90;;;;;;5046547;28;20814;-66
2024/01/10 08:01:06;;;;;;;23.67;11.40;;;-0.20;83.60;;;;;;5049132;28;20490;-66
2024/01/10 08:03:35;;;;;;;18.23;9.73;;;-0.20;83.30;;;;;;5057656;28;20491;-66
2024/01/10 08:06:02;;;;;;;24.10;10.93;;;;;;;;;;5046413;28;20488;-66
2024/01/10 08:08:29;;;;;;;19.33;8.67;;;-0.20;82.70;;;;;;5044220;28;20896;-66
2024/01/10 08:10:57;;;;;;;46.00;12.37;;;-0.20;82.90;;;;;;5040643;28;20484;-66
2024/01/10 08:13:24;;;;;;;27.70;13.83;;;-0.30;82.80;;;;;;5039671;28;20479;-66
2024/01/10 08:15:51;;;;;;;27.23;13.20;;;-0.20;83.50;;;;;;5039162;28;21067;-66
2024/01/10 08:18:17;;;;;;;26.07;11.80;;;-0.20;83.40;;;;;;5044742;28;20484;-66
2024/01/10 08:20:44;;;;;;;18.83;9.90;;;-0.20;83.70;;;;;;5045681;28;20478;-66
2024/01/10 08:23:11;;;;;;;23.30;11.07;;;-0.10;83.40;;;;;;5042097;28;20906;-66
2024/01/10 08:25:40;;;;;;;27.17;11.70;;;0.00;83.40;;;;;;5047461;28;20990;-66
2024/01/10 08:28:09;;;;;;;19.73;11.67;;;0.20;83.70;;;;;;5046544;28;20839;-66
2024/01/10 08:30:36;;;;;;;23.03;13.30;;;0.70;85.40;;;;;;5042633;28;20486;-67
2024/01/10 08:33:05;;;;;;;30.43;12.40;;;2.20;85.20;;;;;;5051484;28;20544;-66
2024/01/10 08:35:31;;;;;;;25.53;12.43;;;2.90;82.20;;;;;;5043266;28;20987;-67
2024/01/10 08:37:58;;;;;;;21.53;12.10;;;3.50;81.60;;;;;;5048523;28;20883;-66
2024/01/10 08:40:25;;;;;;;16.57;10.73;;;4.70;78.80;;;;;;5051417;28;20483;-67
2024/01/10 08:42:55;;;;;;;25.23;10.90;;;5.30;78.10;;;;;;5041793;28;20480;-67
2024/01/10 08:45:24;;;;;;;41.23;14.90;;;;;;;;;;5044201;28;20515;-67
2024/01/10 08:47:52;;;;;;;22.13;12.17;;;6.60;74.60;;;;;;5043107;28;20462;-65
2024/01/10 08:50:19;;;;;;;28.60;14.10;;;6.80;71.20;;;;;;5043205;28;20463;-65
2024/01/10 08:52:46;;;;;;;37.93;14.73;;;7.10;71.20;;;;;;5029796;28;20667;-64
2024/01/10 08:55:13;;;;;;;28.67;15.17;;;6.90;68.70;;;;;;5045166;28;20517;-65
2024/01/10 08:57:40;;;;;;;24.03;13.77;;;7.00;69.20;;;;;;5043183;28;20502;-64
2024/01/10 09:00:11;;;;;;;30.97;14.13;;;7.20;70.00;;;;;;5047574;28;20487;-64
2024/01/10 09:02:39;;;;;;;33.40;14.83;;;7.20;67.80;;;;;;5047530;28;20482;-65
2024/01/10 09:05:09;;;;;;;27.30;14.90;;;7.30;68.60;;;;;;5047193;28;20539;-64
2024/01/10 09:07:37;;;;;;;35.60;17.47;;;7.30;67.80;;;;;;5046744;28;20860;-64
2024/01/10 09:10:07;;;;;;;28.53;16.67;;;7.20;67.60;;;;;;5047631;28;20899;-64
2024/01/10 09:12:34;;;;;;;24.00;14.60;;;7.20;67.80;;;;;;5051018;28;20498;-65
2024/01/10 09:15:01;;;;;;;46.63;17.80;;;7.00;67.10;;;;;;5043215;28;20536;-64
2024/01/10 09:17:29;;;;;;;31.10;15.63;;;6.90;67.50;;;;;;5055608;28;20529;-65
2024/01/10 09:19:57;;;;;;;40.20;18.63;;;6.60;68.30;;;;;;5053597;28;20669;-65
2024/01/10 09:22:24;;;;;;;30.57;16.57;;;6.50;68.60;;;;;;5042921;28;20490;-65
2024/01/10 09:24:51;;;;;;;34.73;18.60;;;6.10;67.30;;;;;;5042352;28;20514;-66
2024/01/10 09:27:18;;;;;;;36.83;17.53;;;5.70;67.50;;;;;;5050170;28;20478;-65
2024/01/10 09:29:45;;;;;;;29.80;16.20;;;5.30;68.40;;;;;;5021021;28;20489;-65
2024/01/10 09:32:12;;;;;;;28.23;16.90;;;5.10;68.40;;;;;;5023797;28;20538;-65
2024/01/10 09:34:39;;;;;;;42.00;18.03;;;4.90;70.10;;;;;;5022733;28;20641;-64
2024/01/10 09:37:07;;;;;;;30.17;17.53;;;4.90;71.60;;;;;;5037465;28;21039;-65
2024/01/10 09:39:34;;;;;;;36.13;16.30;;;4.90;70.70;;;;;;5022201;28;20856;-64
2024/01/10 09:42:01;;;;;;;26.57;15.93;;;4.90;70.70;;;;;;5021506;28;20906;-65
2024/01/10 09:44:29;;;;;;;24.87;12.63;;;4.90;70.10;;;;;;5022360;28;20857;-64
2024/01/10 09:46:56;;;;;;;30.70;14.03;;;4.60;69.70;;;;;;5023664;28;20992;-64
2024/01/10 09:49:24;;;;;;;25.97;14.60;;;4.50;70.60;;;;;;5024860;28;20686;-64
2024/01/10 09:51:54;;;;;;;32.07;17.40;;;4.40;70.10;;;;;;5024591;28;20477;-64
2024/01/10 09:54:25;;;;;;;34.43;16.77;;;4.30;71.80;;;;;;5024761;28;20464;-64
2024/01/10 09:56:53;;;;;;;35.57;16.70;;;4.40;72.00;;;;;;5013128;28;20489;-64
2024/01/10 09:59:20;;;;;;;29.57;15.57;;;4.30;71.20;;;;;;5034124;28;20512;-65
2024/01/10 10:01:46;;;;;;;31.20;14.87;;;4.50;73.00;;;;;;5048059;28;20479;-64
2024/01/10 10:04:15;;;;;;;33.17;15.80;;;4.60;72.70;;;;;;5055454;28;20483;-64
2024/01/10 10:06:41;;;;;;;30.20;16.43;;;4.70;72.80;;;;;;5043411;28;20804;-65
2024/01/10 10:09:09;;;;;;;25.83;16.13;;;4.90;72.60;;;;;;5046217;28;20484;-65
2024/01/10 10:11:38;;;;;;;32.30;17.00;;;5.00;71.70;;;;;;5049561;28;20558;-65
2024/01/10 10:14:19;;;;;;;27.10;14.53;;;5.10;72.50;;;;;;5045728;28;20467;-65
2024/01/10 10:16:46;;;;;;;26.37;14.10;;;4.80;69.10;;;;;;5053160;28;20475;-64
2024/01/10 10:19:13;;;;;;;37.80;15.70;;;4.90;71.40;;;;;;5052324;28;20487;-64
2024/01/10 10:21:42;;;;;;;41.83;16.13;;;4.80;71.30;;;;;;5046355;28;20542;-64
2024/01/10 10:24:09;;;;;;;27.83;15.73;;;4.90;72.10;;;;;;5041726;28;20571;-65
2024/01/10 10:26:38;;;;;;;35.10;16.50;;;4.90;72.10;;;;;;5054293;28;20868;-65
2024/01/10 10:29:05;;;;;;;26.23;11.67;;;4.70;69.90;;;;;;5046511;28;20482;-65
2024/01/10 10:31:32;;;;;;;33.67;15.43;;;4.70;71.10;;;;;;5051422;28;20558;-64
2024/01/10 10:34:02;;;;;;;25.70;15.53;;;4.80;72.20;;;;;;5050355;28;20472;-64
2024/01/10 10:36:31;;;;;;;35.40;15.23;;;4.90;72.70;;;;;;5043571;28;20487;-64
2024/01/10 10:39:02;;;;;;;36.70;16.97;;;5.00;73.10;;;;;;5047518;28;21090;-65
2024/01/10 10:41:32;;;;;;;24.60;14.27;;;5.00;72.80;;;;;;5031112;28;20863;-64
2024/01/10 10:44:02;;;;;;;41.13;18.13;;;5.00;72.10;;;;;;5047608;28;20479;-64
2024/01/10 10:46:33;;;;;;;30.73;14.80;;;4.90;71.70;;;;;;4986460;28;20487;-64
2024/01/10 10:49:01;;;;;;;30.77;14.00;;;;;;;;;;5055985;28;20800;-64
2024/01/10 10:51:34;;;;;;;37.37;15.80;;;4.40;71.50;;;;;;5068947;28;20471;-64
2024/01/10 10:54:02;;;;;;;56.13;17.70;;;4.40;72.80;;;;;;5041854;28;20478;-64
2024/01/10 10:56:31;;;;;;;37.30;17.17;;;4.50;73.20;;;;;;5054957;28;20685;-64
2024/01/10 10:59:01;;;;;;;34.40;16.97;;;4.40;72.20;;;;;;5059321;28;20473;-64
2024/01/10 11:01:29;;;;;;;30.23;16.40;;;4.50;72.60;;;;;;5030832;28;20565;-64
2024/01/10 11:03:57;;;;;;;56.53;19.90;;;4.60;73.90;;;;;;5048418;28;20471;-64
2024/01/10 11:06:24;;;;;;;32.20;17.07;;;4.60;72.40;;;;;;5063609;28;20502;-64
2024/01/10 11:09:00;;;;;;;31.37;16.13;;;4.60;73.50;;;;;;5061039;28;20475;-64
2024/01/10 11:11:56;;;;;;;39.50;17.97;;;4.80;72.70;;;;;;5066889;28;21074;-63
2024/01/10 11:14:40;;;;;;;31.50;15.37;;;5.00;74.50;;;;;;5047020;28;20482;-63
2024/01/10 11:17:26;;;;;;;36.63;18.13;;;5.10;72.80;;;;;;5048281;28;20483;-63
2024/01/10 11:20:09;;;;;;;36.17;15.47;;;5.20;73.00;;;;;;5056468;28;20497;-63
2024/01/10 11:22:51;;;;;;;30.43;16.10;;;5.20;71.80;;;;;;5057448;28;20474;-63
2024/01/10 11:25:19;;;;;;;35.03;16.57;;;5.50;72.90;;;;;;5050256;28;20478;-63
2024/01/10 11:27:47;;;;;;;31.20;17.73;;;5.50;71.70;;;;;;5059509;28;20475;-63
2024/01/10 11:30:33;;;;;;;26.53;15.10;;;5.60;72.60;;;;;;5066118;28;20962;-64
2024/01/10 11:33:03;;;;;;;28.67;17.17;;;5.10;68.80;;;;;;5067740;28;20466;-63
2024/01/10 11:35:32;;;;;;;27.13;16.10;;;5.30;71.80;;;;;;5059527;28;20759;-64
2024/01/10 11:38:01;;;;;;;54.00;17.37;;;5.30;72.10;;;;;;5020838;28;20867;-63
2024/01/10 11:40:48;;;;;;;37.53;17.87;;;5.40;72.40;;;;;;5068052;28;20882;-64
2024/01/10 11:43:16;;;;;;;31.30;15.50;;;5.40;71.80;;;;;;5034475;28;20486;-64
2024/01/10 11:45:53;;;;;;;61.50;17.93;;;5.40;71.60;;;;;;5044160;28;20566;-64
2024/01/10 11:48:28;;;;;;;34.60;17.37;;;5.30;71.00;;;;;;5050774;28;21210;-63
2024/01/10 11:50:56;;;;;;;23.00;14.80;;;5.30;72.50;;;;;;5062477;28;20889;-63
2024/01/10 11:53:42;;;;;;;40.03;18.17;;;5.10;71.50;;;;;;5037272;28;20491;-63
2024/01/10 11:56:15;;;;;;;31.07;18.30;;;5.20;74.00;;;;;;5059004;28;20532;-63
2024/01/10 11:59:04;;;;;;;33.60;14.03;;;5.40;73.30;;;;;;5060400;28;20482;-64
2024/01/10 12:01:34;;;;;;;41.47;18.63;;;5.50;73.10;;;;;;5064246;28;20475;-64
2024/01/10 12:04:01;;;;;;;32.57;17.53;;;5.60;74.50;;;;;;5052041;28;20513;-64
2024/01/10 12:06:28;;;;;;;37.80;14.97;;;5.60;72.40;;;;;;5051301;28;20880;-64
2024/01/10 12:08:55;;;;;;;29.87;16.07;;;5.70;72.70;;;;;;5060582;28;20893;-64
2024/01/10 12:11:22;;;;;;;25.80;14.17;;;5.50;70.70;;;;;;5056880;28;20514;-63
2024/01/10 12:13:49;;;;;;;30.80;16.20;;;;;;;;;;5055510;28;20540;-64
2024/01/10 12:16:17;;;;;;;27.77;15.37;;;5.60;72.40;;;;;;5051525;28;20474;-64
2024/01/10 12:18:45;;;;;;;65.13;17.43;;;5.70;72.10;;;;;;5052420;28;20864;-65
2024/01/10 12:21:13;;;;;;;28.77;13.53;;;5.70;71.90;;;;;;5056238;28;20474;-65
2024/01/10 12:23:41;;;;;;;37.53;16.77;;;5.80;72.40;;;;;;5079653;28;20580;-65
2024/01/10 12:26:12;;;;;;;44.17;17.33;;;5.70;71.00;;;;;;5071547;28;20486;-65
2024/01/10 12:28:39;;;;;;;29.20;15.60;;;;;;;;;;5066159;28;20520;-66
2024/01/10 12:31:08;;;;;;;29.63;17.73;;;5.60;71.90;;;;;;5076104;28;20546;-65
2024/01/10 12:33:35;;;;;;;36.00;17.00;;;5.80;72.60;;;;;;5049726;28;20479;-65
2024/01/10 12:36:10;;;;;;;29.07;15.53;;;5.90;72.90;;;;;;5070305;28;20547;-66
2024/01/10 12:38:38;;;;;;;29.80;14.17;;;5.80;71.00;;;;;;5050538;28;20463;-65
2024/01/10 12:41:08;;;;;;;29.77;17.17;;;5.80;71.20;;;;;;5060403;28;20478;-66